Schaefferstown, Pennsylvania
Current Conditions -  °F | °C
As of 1:26 PM on Monday 26 Jan 2015 (Local Time) from KLNS Reporting Station
Light Snow Light Snow  
Wind Chill: 14°   Ceiling: 1900
Heat Index: 24°   Visibility: 2mi
Dew Point: 20°   Wind: 9mph
Humidity: 84%   Direction: 50°NE
Pressure: 29.79"   Gusts: NA
Location:  40.3°N, 76.29°W
Report Text: KLNS 261826Z 05008KT 2SM -SN BR OVC019 M04/M07 A2979 RMK AO2 P0000 T10441067
Loading
Personal Weather Stations






























Interactive Weather Map New forecast layout! Learn more

10-Day Weather Forecast

Advertisements
Track Severe Weather on mobile